Time;durP1;ratioP1;P1;durP2;ratioP2;P2;SDS_P1;SDS_P2;PMS_P1;PMS_P2;Temp;Humidity;BMP_temperature;BMP_pressure;BME280_temperature;BME280_humidity;BME280_pressure;Samples;Min_cycle;Max_cycle;Signal;HPM_P1;HPM_P2
2023/10/31 00:01:11;;;;;;;2.25;0.65;;;14.60;99.90;;;;;;5027634;28;20291;-68
2023/10/31 00:03:37;;;;;;;1.33;0.68;;;14.60;99.90;;;;;;5029256;28;20280;-67
2023/10/31 00:06:02;;;;;;;0.73;0.73;;;14.60;99.90;;;;;;5025169;28;20277;-66
2023/10/31 00:08:33;;;;;;;1.45;1.00;;;14.60;99.90;;;;;;5029636;28;20206;-67
2023/10/31 00:10:58;;;;;;;1.70;1.10;;;14.50;99.90;;;;;;5026529;28;20205;-69
2023/10/31 00:13:26;;;;;;;2.05;1.13;;;14.50;99.90;;;;;;5021768;28;20408;-68
2023/10/31 00:15:54;;;;;;;1.70;1.40;;;14.50;99.90;;;;;;5027677;28;20223;-69
2023/10/31 00:18:20;;;;;;;0.93;0.80;;;14.50;99.90;;;;;;5027733;28;20168;-68
2023/10/31 00:20:46;;;;;;;1.27;0.93;;;14.50;99.90;;;;;;5025703;28;20201;-68
2023/10/31 00:23:12;;;;;;;1.02;0.82;;;14.50;99.90;;;;;;5029742;28;20194;-68
2023/10/31 00:25:40;;;;;;;0.90;0.80;;;14.50;99.90;;;;;;5026903;28;20185;-68
2023/10/31 00:28:08;;;;;;;1.00;0.90;;;14.50;99.90;;;;;;5024779;28;20257;-68
2023/10/31 00:30:33;;;;;;;1.17;0.90;;;14.50;99.90;;;;;;5025775;28;20226;-68
2023/10/31 00:33:01;;;;;;;1.23;0.98;;;14.40;99.90;;;;;;5028360;28;20206;-68
2023/10/31 00:35:27;;;;;;;1.00;0.90;;;14.40;99.90;;;;;;5029938;28;20236;-70
2023/10/31 00:37:52;;;;;;;1.10;1.00;;;14.40;99.90;;;;;;5028555;28;20181;-68
2023/10/31 00:40:18;;;;;;;1.02;0.80;;;14.40;99.90;;;;;;5030247;28;20496;-68
2023/10/31 00:42:44;;;;;;;0.80;0.77;;;14.40;99.90;;;;;;5031198;28;20201;-68
2023/10/31 00:45:10;;;;;;;1.52;0.90;;;14.40;99.90;;;;;;5037730;28;20256;-69
2023/10/31 00:47:36;;;;;;;1.02;0.90;;;14.30;99.90;;;;;;5032372;28;20193;-68
2023/10/31 00:50:04;;;;;;;0.60;0.60;;;14.40;99.90;;;;;;5034070;28;20200;-67
2023/10/31 00:52:30;;;;;;;0.60;0.60;;;14.30;99.90;;;;;;5032997;28;20344;-69
2023/10/31 00:54:56;;;;;;;0.90;0.70;;;14.30;99.90;;;;;;5032870;28;20186;-67
2023/10/31 00:57:21;;;;;;;0.90;0.80;;;14.30;99.90;;;;;;5046430;28;20201;-68
2023/10/31 00:59:47;;;;;;;1.75;0.70;;;14.20;99.90;;;;;;5032199;28;20209;-68
2023/10/31 01:02:13;;;;;;;1.50;0.88;;;14.20;99.90;;;;;;5037836;28;20193;-68
2023/10/31 01:04:41;;;;;;;1.02;0.45;;;14.20;99.90;;;;;;5040603;28;20180;-67
2023/10/31 01:07:06;;;;;;;0.55;0.47;;;14.20;99.90;;;;;;5034360;28;20170;-68
2023/10/31 01:09:34;;;;;;;0.85;0.50;;;14.20;99.90;;;;;;5036557;28;20212;-67
2023/10/31 01:12:00;;;;;;;0.50;0.47;;;14.20;99.90;;;;;;5027523;28;20263;-68
2023/10/31 01:14:28;;;;;;;0.50;0.45;;;14.10;99.90;;;;;;5024006;28;20261;-68
2023/10/31 01:16:53;;;;;;;0.55;0.50;;;14.10;99.90;;;;;;5032541;28;20185;-68
2023/10/31 01:19:21;;;;;;;0.50;0.50;;;14.10;99.90;;;;;;5035921;28;20215;-68
2023/10/31 01:21:47;;;;;;;0.70;0.50;;;14.00;99.90;;;;;;5033326;28;20200;-68
2023/10/31 01:24:15;;;;;;;0.52;0.40;;;14.00;99.90;;;;;;5031803;28;20170;-68
2023/10/31 01:26:45;;;;;;;0.47;0.47;;;14.00;99.90;;;;;;5026473;28;20182;-68
2023/10/31 01:29:11;;;;;;;0.50;0.50;;;14.00;99.90;;;;;;5032473;28;20198;-68
2023/10/31 01:31:37;;;;;;;0.95;0.60;;;13.90;99.90;;;;;;5043830;28;20200;-68
2023/10/31 01:34:05;;;;;;;0.40;0.40;;;13.90;99.90;;;;;;5027312;28;20671;-68
2023/10/31 01:36:30;;;;;;;0.70;0.60;;;13.80;99.90;;;;;;5029968;28;20209;-67
2023/10/31 01:38:59;;;;;;;1.00;0.60;;;13.80;99.90;;;;;;5026441;28;20212;-67
2023/10/31 01:41:24;;;;;;;0.85;0.68;;;13.70;99.90;;;;;;5030726;28;20181;-67
2023/10/31 01:43:50;;;;;;;0.60;0.50;;;13.70;99.90;;;;;;5031569;28;20186;-68
2023/10/31 01:46:18;;;;;;;0.90;0.57;;;13.60;99.90;;;;;;5029921;28;20173;-68
2023/10/31 01:48:45;;;;;;;0.60;0.50;;;13.60;99.90;;;;;;5043887;28;20197;-68
2023/10/31 01:51:11;;;;;;;1.65;0.68;;;13.60;99.90;;;;;;5024699;28;20174;-68
2023/10/31 01:53:40;;;;;;;0.43;0.38;;;13.50;99.90;;;;;;5025413;28;20184;-68
2023/10/31 01:56:06;;;;;;;0.93;0.40;;;13.40;99.90;;;;;;5026008;28;20206;-68
2023/10/31 01:58:39;;;;;;;1.58;0.40;;;13.50;99.90;;;;;;5028769;28;20174;-68
2023/10/31 02:01:06;;;;;;;0.82;0.43;;;13.40;99.90;;;;;;5030178;28;20249;-68
2023/10/31 02:03:33;;;;;;;0.63;0.40;;;13.30;99.90;;;;;;5037381;28;20472;-68
2023/10/31 02:05:59;;;;;;;0.90;0.60;;;13.30;99.90;;;;;;5032136;28;20185;-68
2023/10/31 02:08:25;;;;;;;1.30;0.55;;;13.30;99.90;;;;;;5028111;28;20193;-68
2023/10/31 02:10:53;;;;;;;0.63;0.60;;;13.20;99.90;;;;;;5030328;28;20189;-68
2023/10/31 02:13:21;;;;;;;0.60;0.47;;;13.20;99.90;;;;;;5033629;28;20234;-68
2023/10/31 02:15:47;;;;;;;0.75;0.60;;;13.10;99.90;;;;;;5029253;28;20276;-68
2023/10/31 02:18:13;;;;;;;0.75;0.50;;;13.10;99.90;;;;;;5034664;28;20242;-69
2023/10/31 02:20:39;;;;;;;1.35;0.50;;;13.00;99.90;;;;;;5028539;28;20295;-68
2023/10/31 02:23:07;;;;;;;0.90;0.50;;;13.00;99.90;;;;;;5032968;28;20186;-68
2023/10/31 02:25:33;;;;;;;0.70;0.50;;;13.00;99.90;;;;;;5025810;28;20460;-68
2023/10/31 02:27:59;;;;;;;1.50;0.57;;;13.00;99.90;;;;;;5028670;28;20173;-68
2023/10/31 02:30:25;;;;;;;0.90;0.60;;;12.90;99.90;;;;;;5031969;28;20272;-67
2023/10/31 02:32:53;;;;;;;1.58;0.63;;;12.90;99.90;;;;;;5034526;28;20209;-68
2023/10/31 02:35:19;;;;;;;1.08;0.60;;;12.90;99.90;;;;;;5025147;28;20281;-68
2023/10/31 02:37:46;;;;;;;1.13;0.60;;;12.80;99.90;;;;;;5031811;28;20267;-68
2023/10/31 02:40:12;;;;;;;1.48;0.85;;;12.80;99.90;;;;;;5035031;28;20198;-68
2023/10/31 02:42:37;;;;;;;1.40;0.80;;;12.80;99.90;;;;;;5030338;28;20184;-68
2023/10/31 02:45:03;;;;;;;2.10;1.23;;;12.70;99.90;;;;;;5022228;28;20218;-68
2023/10/31 02:47:31;;;;;;;2.88;1.10;;;12.70;99.90;;;;;;5022326;28;20233;-69
2023/10/31 02:49:59;;;;;;;1.67;0.98;;;12.70;99.90;;;;;;5036197;28;20181;-69
2023/10/31 02:52:29;;;;;;;1.98;1.00;;;12.70;99.90;;;;;;5029620;28;20181;-67
2023/10/31 02:54:55;;;;;;;3.30;0.90;;;12.70;99.90;;;;;;5055544;28;20174;-68
2023/10/31 02:57:21;;;;;;;1.45;1.00;;;12.70;99.90;;;;;;5028378;28;20212;-69
2023/10/31 02:59:46;;;;;;;1.88;0.93;;;12.60;99.90;;;;;;5029401;28;20221;-69
2023/10/31 03:02:12;;;;;;;1.23;0.80;;;12.60;99.90;;;;;;5039001;28;20184;-66
2023/10/31 03:04:38;;;;;;;1.00;0.75;;;12.60;99.90;;;;;;5030292;28;20190;-68
2023/10/31 03:07:06;;;;;;;1.00;0.75;;;12.50;99.90;;;;;;5037069;28;20268;-69
2023/10/31 03:09:34;;;;;;;1.48;0.80;;;12.60;99.90;;;;;;5032875;28;20214;-68
2023/10/31 03:12:02;;;;;;;1.60;0.70;;;12.50;99.90;;;;;;5037146;28;20232;-68
2023/10/31 03:14:29;;;;;;;0.98;0.57;;;12.50;99.90;;;;;;5027415;28;20269;-66
2023/10/31 03:16:55;;;;;;;1.23;0.60;;;12.60;99.90;;;;;;5029488;28;20293;-66
2023/10/31 03:19:23;;;;;;;1.25;0.60;;;12.50;99.90;;;;;;5029666;28;20317;-66
2023/10/31 03:21:51;;;;;;;1.00;0.70;;;12.50;99.90;;;;;;5020504;28;20170;-67
2023/10/31 03:24:16;;;;;;;1.35;0.50;;;12.50;99.90;;;;;;5032121;28;20236;-66
2023/10/31 03:26:42;;;;;;;1.38;0.50;;;12.50;99.90;;;;;;5019954;28;20178;-66
2023/10/31 03:29:07;;;;;;;1.08;0.70;;;12.50;99.90;;;;;;5037160;28;20503;-66
2023/10/31 03:31:35;;;;;;;1.58;0.60;;;12.60;99.90;;;;;;5026611;28;20188;-66
2023/10/31 03:34:03;;;;;;;0.77;0.45;;;12.60;99.90;;;;;;5033121;28;20196;-66
2023/10/31 03:36:29;;;;;;;1.13;0.60;;;12.50;99.90;;;;;;5026541;28;20261;-66
2023/10/31 03:38:54;;;;;;;1.75;0.70;;;12.50;99.90;;;;;;5030238;28;20288;-66
2023/10/31 03:41:20;;;;;;;0.85;0.60;;;12.50;99.90;;;;;;5025876;28;20212;-66
2023/10/31 03:43:45;;;;;;;0.98;0.60;;;12.50;99.90;;;;;;5027291;28;20220;-66
2023/10/31 03:46:11;;;;;;;1.20;0.40;;;12.50;99.90;;;;;;5032229;28;20173;-66
2023/10/31 03:48:37;;;;;;;1.52;0.50;;;12.50;99.90;;;;;;5025850;28;20177;-67
2023/10/31 03:51:05;;;;;;;1.60;0.60;;;12.50;99.90;;;;;;5027867;28;20184;-66
2023/10/31 03:53:31;;;;;;;1.05;0.70;;;12.50;99.90;;;;;;5031286;28;20216;-65
2023/10/31 03:56:00;;;;;;;0.80;0.50;;;12.60;99.90;;;;;;5025932;28;20214;-66
2023/10/31 03:58:25;;;;;;;1.15;0.70;;;12.50;99.90;;;;;;5023575;28;20228;-64
2023/10/31 04:00:51;;;;;;;2.42;0.70;;;12.60;99.90;;;;;;5028199;28;20228;-66
2023/10/31 04:03:16;;;;;;;1.40;0.68;;;12.60;99.90;;;;;;5020719;28;20197;-66
2023/10/31 04:05:44;;;;;;;0.98;0.60;;;12.50;99.90;;;;;;5027258;28;20239;-66
2023/10/31 04:08:10;;;;;;;0.82;0.43;;;12.50;99.90;;;;;;5038042;28;20170;-66
2023/10/31 04:10:36;;;;;;;0.40;0.40;;;12.60;99.90;;;;;;5027032;28;20236;-67
2023/10/31 04:13:01;;;;;;;2.70;0.55;;;12.60;99.90;;;;;;5026047;28;20177;-67
2023/10/31 04:15:27;;;;;;;1.02;0.60;;;12.60;99.90;;;;;;5025071;28;20196;-67
2023/10/31 04:17:52;;;;;;;0.95;0.60;;;12.60;99.90;;;;;;5022281;28;20193;-65
2023/10/31 04:20:20;;;;;;;1.50;0.52;;;12.60;99.90;;;;;;5027972;28;20197;-66
2023/10/31 04:22:48;;;;;;;1.00;0.50;;;12.70;99.90;;;;;;5024086;28;20273;-67
2023/10/31 04:25:13;;;;;;;0.70;0.50;;;12.70;99.90;;;;;;5029292;28;20178;-67
2023/10/31 04:27:41;;;;;;;1.92;0.50;;;12.70;99.90;;;;;;5028093;28;20189;-67
2023/10/31 04:30:07;;;;;;;0.38;0.35;;;12.70;99.90;;;;;;5022413;28;20174;-67
2023/10/31 04:32:35;;;;;;;1.45;0.70;;;12.70;99.90;;;;;;5028588;28;20189;-67
2023/10/31 04:35:01;;;;;;;1.10;0.40;;;12.80;99.90;;;;;;5034743;28;20201;-67
2023/10/31 04:37:26;;;;;;;1.17;0.57;;;12.80;99.90;;;;;;5032163;28;20267;-67
2023/10/31 04:39:52;;;;;;;0.98;0.60;;;12.80;99.90;;;;;;5029099;28;20200;-67
2023/10/31 04:42:20;;;;;;;0.73;0.55;;;12.80;99.90;;;;;;5028467;28;20208;-67
2023/10/31 04:44:49;;;;;;;1.10;0.70;;;12.80;99.90;;;;;;5028041;28;20429;-67
2023/10/31 04:47:15;;;;;;;1.00;0.70;;;12.80;99.90;;;;;;5034595;28;20173;-67
2023/10/31 04:49:43;;;;;;;1.38;0.70;;;12.80;99.90;;;;;;5027519;28;20182;-67
2023/10/31 04:52:12;;;;;;;0.80;0.50;;;12.80;99.90;;;;;;5018738;28;20178;-67
2023/10/31 04:54:37;;;;;;;0.60;0.60;;;12.80;99.90;;;;;;5032295;28;20197;-67
2023/10/31 04:57:03;;;;;;;0.68;0.60;;;12.90;99.90;;;;;;5032094;28;20174;-67
2023/10/31 04:59:29;;;;;;;0.93;0.70;;;12.90;99.90;;;;;;5032431;28;20209;-67
2023/10/31 05:01:55;;;;;;;0.73;0.60;;;12.90;99.90;;;;;;5035554;28;20201;-67
2023/10/31 05:04:23;;;;;;;0.77;0.70;;;12.90;99.90;;;;;;5057199;28;20160;-66
2023/10/31 05:06:51;;;;;;;0.85;0.70;;;13.00;99.90;;;;;;5050357;28;20201;-67
2023/10/31 05:09:17;;;;;;;0.82;0.70;;;13.00;99.90;;;;;;5037034;28;20193;-67
2023/10/31 05:11:45;;;;;;;0.85;0.52;;;13.00;99.90;;;;;;5037166;28;20176;-67
2023/10/31 05:14:11;;;;;;;0.50;0.43;;;13.00;99.90;;;;;;5033611;28;20197;-64
2023/10/31 05:16:41;;;;;;;0.70;0.55;;;13.10;99.90;;;;;;5024247;28;20197;-63
2023/10/31 05:19:07;;;;;;;1.02;0.60;;;13.10;99.90;;;;;;5026565;28;20304;-63
2023/10/31 05:21:32;;;;;;;0.40;0.40;;;13.10;99.90;;;;;;5020421;28;20324;-64
2023/10/31 05:23:58;;;;;;;0.65;0.40;;;13.10;99.90;;;;;;5027070;28;20170;-63
2023/10/31 05:26:24;;;;;;;1.10;0.88;;;13.20;99.90;;;;;;5020983;28;20428;-63
2023/10/31 05:28:54;;;;;;;0.57;0.47;;;13.20;99.90;;;;;;5032332;28;20182;-62
2023/10/31 05:31:24;;;;;;;0.90;0.68;;;13.20;99.90;;;;;;5032186;28;20178;-63
2023/10/31 05:33:52;;;;;;;0.88;0.50;;;13.20;99.90;;;;;;5026588;28;20178;-63
2023/10/31 05:36:22;;;;;;;0.50;0.50;;;13.20;99.90;;;;;;5025786;28;20173;-63
2023/10/31 05:38:48;;;;;;;0.50;0.40;;;13.10;99.90;;;;;;5034440;28;20213;-63
2023/10/31 05:41:17;;;;;;;0.50;0.40;;;13.10;99.90;;;;;;5036884;28;20202;-63
2023/10/31 05:43:42;;;;;;;0.95;0.60;;;13.10;99.90;;;;;;5030146;28;20256;-63
2023/10/31 05:46:14;;;;;;;0.55;0.45;;;13.10;99.90;;;;;;5035984;28;20249;-62
2023/10/31 05:48:41;;;;;;;0.75;0.43;;;13.10;99.90;;;;;;5032415;28;20184;-62
2023/10/31 05:51:14;;;;;;;0.63;0.52;;;13.10;99.90;;;;;;5025265;28;20212;-62
2023/10/31 05:53:41;;;;;;;0.90;0.40;;;13.00;99.90;;;;;;5027621;28;20194;-63
2023/10/31 05:56:08;;;;;;;0.85;0.50;;;13.00;99.90;;;;;;5032696;28;20185;-64
2023/10/31 05:58:38;;;;;;;0.73;0.65;;;13.00;99.90;;;;;;5030932;28;20212;-63
2023/10/31 06:01:07;;;;;;;1.10;0.65;;;13.00;99.90;;;;;;5028576;28;20201;-63
2023/10/31 06:03:33;;;;;;;1.15;0.80;;;13.00;99.90;;;;;;5029249;28;20303;-64
2023/10/31 06:05:59;;;;;;;1.17;0.70;;;13.00;99.90;;;;;;5029277;28;20209;-62
2023/10/31 06:08:28;;;;;;;1.98;0.70;;;13.00;99.90;;;;;;5034088;28;20254;-62
2023/10/31 06:10:55;;;;;;;0.80;0.68;;;13.00;99.90;;;;;;5029307;28;20288;-62
2023/10/31 06:13:31;;;;;;;0.98;0.70;;;13.10;99.90;;;;;;5028465;28;20403;-63
2023/10/31 06:16:00;;;;;;;0.57;0.50;;;13.10;99.90;;;;;;5034902;28;20180;-66
2023/10/31 06:18:26;;;;;;;0.82;0.57;;;13.10;99.90;;;;;;5025550;28;20197;-66
2023/10/31 06:20:52;;;;;;;0.75;0.60;;;13.10;99.90;;;;;;5027657;28;20232;-64
2023/10/31 06:23:20;;;;;;;0.68;0.60;;;13.10;99.90;;;;;;5028596;28;20193;-66
2023/10/31 06:25:48;;;;;;;0.60;0.60;;;13.20;99.90;;;;;;5033988;28;20177;-62
2023/10/31 06:28:14;;;;;;;0.80;0.60;;;13.20;99.90;;;;;;5033013;28;20182;-63
2023/10/31 06:30:42;;;;;;;1.08;0.60;;;13.20;99.90;;;;;;5025114;28;20255;-62
2023/10/31 06:33:08;;;;;;;0.73;0.60;;;13.20;99.90;;;;;;5026624;28;20182;-63
2023/10/31 06:35:34;;;;;;;0.70;0.60;;;13.20;99.90;;;;;;5026050;28;20186;-62
2023/10/31 06:38:02;;;;;;;2.05;0.85;;;13.20;99.90;;;;;;5037175;28;20235;-62
2023/10/31 06:40:28;;;;;;;1.17;0.60;;;13.30;99.90;;;;;;5035472;28;20236;-63
2023/10/31 06:42:56;;;;;;;0.93;0.60;;;13.20;99.90;;;;;;5033676;28;20222;-63
2023/10/31 06:45:21;;;;;;;1.10;0.70;;;13.20;99.90;;;;;;5026246;28;20189;-63
2023/10/31 06:47:49;;;;;;;1.00;0.70;;;13.20;99.90;;;;;;5039150;28;20169;-63
2023/10/31 06:50:15;;;;;;;1.73;0.80;;;13.20;99.90;;;;;;5030241;28;20213;-63
2023/10/31 06:52:41;;;;;;;1.45;0.60;;;13.20;99.90;;;;;;5019561;28;20178;-63
2023/10/31 06:55:09;;;;;;;0.52;0.52;;;13.30;99.90;;;;;;5028059;28;20205;-63
2023/10/31 06:57:35;;;;;;;0.80;0.60;;;13.20;99.90;;;;;;5039025;28;20181;-63
2023/10/31 07:00:00;;;;;;;0.93;0.60;;;13.20;99.90;;;;;;5039154;28;20205;-64
2023/10/31 07:02:26;;;;;;;1.08;0.70;;;13.20;99.90;;;;;;5038228;28;20227;-64
2023/10/31 07:04:51;;;;;;;1.13;0.60;;;13.30;99.90;;;;;;5056694;28;20181;-64
2023/10/31 07:07:19;;;;;;;1.00;0.70;;;13.30;99.90;;;;;;5038862;28;20165;-64
2023/10/31 07:09:45;;;;;;;1.17;0.80;;;13.30;99.90;;;;;;5038774;28;20283;-62
2023/10/31 07:12:11;;;;;;;0.65;0.50;;;13.30;99.90;;;;;;5030630;28;20232;-63
2023/10/31 07:14:36;;;;;;;0.57;0.55;;;13.30;99.90;;;;;;5027933;28;20199;-63
2023/10/31 07:17:07;;;;;;;0.80;0.68;;;13.30;99.90;;;;;;5032459;28;20197;-62
2023/10/31 07:19:32;;;;;;;2.40;1.23;;;13.30;99.90;;;;;;5025714;28;20287;-63
2023/10/31 07:21:58;;;;;;;2.10;1.00;;;13.30;99.90;;;;;;5035424;28;20224;-63
2023/10/31 07:24:28;;;;;;;1.40;0.85;;;13.20;99.90;;;;;;5023892;28;20173;-63
2023/10/31 07:26:54;;;;;;;2.10;0.90;;;13.20;99.90;;;;;;5026990;28;20185;-62
2023/10/31 07:29:23;;;;;;;1.13;0.80;;;13.20;99.90;;;;;;5023843;28;20432;-62
2023/10/31 07:31:50;;;;;;;1.63;0.65;;;13.20;99.90;;;;;;5027935;28;20172;-63
2023/10/31 07:34:19;;;;;;;0.80;0.70;;;13.20;99.90;;;;;;5033680;28;20265;-63
2023/10/31 07:36:45;;;;;;;1.27;0.80;;;13.20;99.90;;;;;;5029757;28;20247;-63
2023/10/31 07:39:12;;;;;;;1.00;0.70;;;13.20;99.90;;;;;;5025832;28;20271;-62
2023/10/31 07:41:38;;;;;;;0.90;0.70;;;13.20;99.90;;;;;;5027434;28;20178;-63
2023/10/31 07:44:04;;;;;;;2.17;0.70;;;13.20;99.90;;;;;;5030181;28;20196;-63
2023/10/31 07:46:30;;;;;;;1.95;0.70;;;13.10;99.90;;;;;;5030542;28;20264;-63
2023/10/31 07:48:58;;;;;;;1.00;0.70;;;13.10;99.90;;;;;;5027977;28;20292;-63
2023/10/31 07:51:25;;;;;;;0.82;0.70;;;13.10;99.90;;;;;;5032064;28;20191;-63
2023/10/31 07:53:51;;;;;;;1.10;0.70;;;13.20;99.90;;;;;;5032385;28;20194;-63
2023/10/31 07:56:22;;;;;;;1.92;0.82;;;13.20;99.90;;;;;;5029318;28;20177;-63
2023/10/31 07:58:51;;;;;;;0.80;0.70;;;13.20;99.90;;;;;;5028367;28;20192;-63
2023/10/31 08:01:21;;;;;;;2.30;0.82;;;13.20;99.90;;;;;;5026344;28;20277;-63
2023/10/31 08:03:49;;;;;;;0.65;0.65;;;13.20;99.90;;;;;;5035517;28;20174;-62
2023/10/31 08:06:17;;;;;;;1.58;0.88;;;13.20;99.90;;;;;;5030784;28;20177;-62
2023/10/31 08:08:43;;;;;;;1.75;0.90;;;13.20;99.90;;;;;;5024957;28;20197;-64
2023/10/31 08:11:09;;;;;;;1.48;0.93;;;13.20;99.90;;;;;;5038729;28;20197;-63
2023/10/31 08:13:38;;;;;;;1.30;0.90;;;13.30;99.90;;;;;;5033411;28;20247;-63
2023/10/31 08:16:05;;;;;;;1.02;0.80;;;13.20;99.90;;;;;;5027879;28;20506;-64
2023/10/31 08:18:31;;;;;;;1.67;0.98;;;13.20;99.90;;;;;;5025696;28;20174;-64
2023/10/31 08:20:59;;;;;;;1.00;0.80;;;13.20;99.90;;;;;;5027088;28;20220;-63
2023/10/31 08:23:25;;;;;;;1.38;0.93;;;13.30;99.90;;;;;;5029085;28;20187;-63
2023/10/31 08:25:51;;;;;;;1.52;0.80;;;13.30;99.90;;;;;;5025163;28;20169;-64
2023/10/31 08:28:22;;;;;;;2.30;0.85;;;13.30;99.90;;;;;;5030849;28;20222;-65
2023/10/31 08:30:50;;;;;;;1.92;0.80;;;13.40;99.90;;;;;;5026876;28;20174;-65
2023/10/31 08:33:16;;;;;;;2.25;0.82;;;13.50;99.90;;;;;;5028498;28;20273;-64
2023/10/31 08:35:42;;;;;;;1.58;0.73;;;13.40;99.90;;;;;;5029512;28;20256;-63
2023/10/31 08:38:08;;;;;;;1.63;0.63;;;13.60;99.90;;;;;;5027035;28;20192;-63
2023/10/31 08:40:33;;;;;;;1.52;0.70;;;13.60;99.90;;;;;;5028458;28;20190;-64
2023/10/31 08:43:04;;;;;;;1.38;0.80;;;13.70;99.90;;;;;;5028087;28;20195;-64
2023/10/31 08:45:29;;;;;;;1.50;0.88;;;13.80;99.90;;;;;;5035987;28;20205;-62
2023/10/31 08:47:55;;;;;;;1.83;1.00;;;13.90;99.90;;;;;;5033870;28;20464;-64
2023/10/31 08:50:21;;;;;;;1.35;0.95;;;13.90;99.90;;;;;;5037830;28;20173;-65
2023/10/31 08:52:47;;;;;;;3.28;1.30;;;13.90;99.90;;;;;;5049563;28;20196;-63
2023/10/31 08:55:12;;;;;;;2.17;1.50;;;14.00;99.90;;;;;;5032218;28;20181;-64
2023/10/31 08:57:38;;;;;;;1.98;1.50;;;14.10;99.90;;;;;;5057743;28;20176;-63
2023/10/31 09:00:07;;;;;;;1.52;1.17;;;14.20;99.90;;;;;;5052592;28;20198;-64
2023/10/31 09:02:33;;;;;;;2.17;1.20;;;14.20;99.90;;;;;;5019725;28;20170;-63
2023/10/31 09:05:01;;;;;;;1.70;1.05;;;14.30;99.90;;;;;;5028498;28;20173;-63
2023/10/31 09:07:27;;;;;;;1.02;0.80;;;14.30;99.90;;;;;;5037592;28;20186;-65
2023/10/31 09:09:55;;;;;;;1.45;0.88;;;14.30;99.90;;;;;;5033093;28;20243;-63
2023/10/31 09:12:20;;;;;;;1.20;0.80;;;14.30;99.90;;;;;;5037295;28;20284;-63
2023/10/31 09:14:48;;;;;;;1.30;0.80;;;14.40;99.90;;;;;;5024284;28;20209;-64
2023/10/31 09:17:13;;;;;;;1.08;0.70;;;14.40;99.90;;;;;;5026829;28;20178;-64
2023/10/31 09:19:42;;;;;;;2.15;1.10;;;14.50;99.90;;;;;;5021134;28;20328;-63
2023/10/31 09:22:07;;;;;;;0.80;0.70;;;14.70;99.90;;;;;;5021138;28;20240;-68
2023/10/31 09:24:33;;;;;;;2.00;0.90;;;14.90;99.90;;;;;;5039691;28;20208;-64
2023/10/31 09:27:01;;;;;;;1.27;0.88;;;15.00;99.90;;;;;;5039817;28;20224;-64
2023/10/31 09:29:27;;;;;;;1.33;0.80;;;15.10;99.90;;;;;;5031921;28;20214;-65
2023/10/31 09:31:56;;;;;;;1.17;0.95;;;15.20;99.90;;;;;;5031536;28;20179;-63
2023/10/31 09:34:22;;;;;;;1.98;0.80;;;15.30;99.90;;;;;;5032609;28;20178;-64
2023/10/31 09:36:48;;;;;;;2.60;0.90;;;15.40;99.90;;;;;;5032024;28;20192;-64
2023/10/31 09:39:16;;;;;;;1.30;0.80;;;15.50;99.90;;;;;;5029583;28;20178;-63
2023/10/31 09:41:41;;;;;;;1.52;0.80;;;15.50;99.90;;;;;;5028964;28;20222;-64
2023/10/31 09:44:07;;;;;;;2.08;0.80;;;15.50;99.90;;;;;;5039567;28;20270;-64
2023/10/31 09:46:37;;;;;;;2.45;1.00;;;15.60;99.90;;;;;;5041640;28;20198;-64
2023/10/31 09:49:03;;;;;;;1.17;0.90;;;15.60;99.90;;;;;;5044069;28;20182;-64
2023/10/31 09:51:29;;;;;;;1.65;0.80;;;15.50;99.90;;;;;;5027329;28;20184;-63
2023/10/31 09:53:58;;;;;;;2.95;0.90;;;15.50;99.90;;;;;;5032247;28;20197;-64
2023/10/31 09:56:24;;;;;;;0.80;0.70;;;15.50;99.90;;;;;;5023319;28;20180;-61
2023/10/31 09:58:58;;;;;;;1.35;0.88;;;15.50;99.90;;;;;;5025064;28;20174;-63
2023/10/31 10:01:26;;;;;;;1.02;0.80;;;15.40;99.90;;;;;;5026833;28;20267;-64
2023/10/31 10:03:54;;;;;;;2.13;0.70;;;15.50;99.90;;;;;;5045008;28;20280;-64
2023/10/31 10:06:23;;;;;;;1.33;0.60;;;15.60;99.90;;;;;;5026309;28;20191;-64
2023/10/31 10:08:51;;;;;;;1.80;0.68;;;15.60;99.90;;;;;;5030222;28;20251;-64
2023/10/31 10:11:19;;;;;;;1.23;0.70;;;15.70;99.90;;;;;;5031438;28;20200;-62
2023/10/31 10:13:45;;;;;;;1.13;0.50;;;15.70;99.90;;;;;;5033029;28;20201;-64
2023/10/31 10:16:27;;;;;;;1.25;0.60;;;15.80;99.90;;;;;;5031173;28;20243;-61
2023/10/31 10:18:52;;;;;;;1.35;0.70;;;15.80;99.90;;;;;;5036552;28;20181;-62
2023/10/31 10:21:18;;;;;;;1.58;0.63;;;15.80;99.90;;;;;;5030875;28;20220;-62
2023/10/31 10:23:49;;;;;;;1.35;0.85;;;15.80;99.90;;;;;;5032284;28;20182;-63
2023/10/31 10:26:15;;;;;;;0.75;0.47;;;15.80;99.90;;;;;;5026816;28;20177;-63
2023/10/31 10:28:40;;;;;;;2.05;0.60;;;15.90;99.90;;;;;;5029821;28;20194;-63
2023/10/31 10:31:08;;;;;;;0.93;0.40;;;15.90;99.90;;;;;;5032426;28;20318;-63
2023/10/31 10:33:34;;;;;;;1.23;0.43;;;16.00;99.90;;;;;;5025734;28;20193;-63
2023/10/31 10:36:02;;;;;;;1.25;0.60;;;16.10;99.90;;;;;;5030168;28;20186;-64
2023/10/31 10:38:33;;;;;;;0.65;0.40;;;16.10;99.90;;;;;;5031888;28;20319;-64
2023/10/31 10:41:03;;;;;;;0.63;0.55;;;16.10;99.90;;;;;;5033173;28;20217;-63
2023/10/31 10:43:34;;;;;;;1.67;0.70;;;16.20;99.90;;;;;;5026003;28;20166;-63
2023/10/31 10:46:03;;;;;;;1.90;0.60;;;16.20;99.90;;;;;;5055848;28;20171;-63
2023/10/31 10:48:38;;;;;;;1.10;0.55;;;16.20;99.90;;;;;;5058941;28;20225;-63
2023/10/31 10:51:16;;;;;;;2.05;0.57;;;16.20;99.90;;;;;;5059007;28;20191;-64
2023/10/31 10:53:49;;;;;;;1.67;0.57;;;16.20;99.90;;;;;;5041643;28;20185;-63
2023/10/31 10:56:25;;;;;;;2.78;0.60;;;16.30;99.90;;;;;;5058938;28;20168;-62
2023/10/31 10:59:02;;;;;;;0.90;0.50;;;16.20;99.90;;;;;;5056745;28;20168;-63
2023/10/31 11:01:31;;;;;;;0.73;0.57;;;16.20;99.90;;;;;;5018870;28;20275;-63
2023/10/31 11:03:57;;;;;;;5.50;0.82;;;16.20;99.90;;;;;;5027051;28;20180;-63
2023/10/31 11:06:24;;;;;;;1.27;0.50;;;16.20;99.90;;;;;;5035545;28;20177;-64
2023/10/31 11:08:53;;;;;;;1.83;0.60;;;16.10;99.90;;;;;;5040746;28;20189;-64
2023/10/31 11:11:20;;;;;;;1.40;0.57;;;16.10;99.90;;;;;;5039838;28;20177;-64
2023/10/31 11:13:46;;;;;;;1.40;0.70;;;16.00;99.90;;;;;;5038133;28;20174;-64
2023/10/31 11:16:24;;;;;;;1.90;0.93;;;16.00;99.90;;;;;;5026406;28;20262;-64
2023/10/31 11:18:50;;;;;;;2.00;0.77;;;16.00;99.90;;;;;;5058227;28;20164;-64
2023/10/31 11:21:16;;;;;;;1.35;0.63;;;15.90;99.90;;;;;;5036481;28;20202;-64
2023/10/31 11:23:41;;;;;;;1.63;0.88;;;15.90;99.90;;;;;;5018635;28;20204;-64
2023/10/31 11:26:08;;;;;;;1.33;0.60;;;15.90;99.90;;;;;;5042865;28;20178;-64
2023/10/31 11:28:35;;;;;;;0.88;0.50;;;15.90;99.90;;;;;;5048820;28;20176;-64
2023/10/31 11:31:02;;;;;;;2.03;0.80;;;15.90;99.90;;;;;;5058312;28;20179;-64
2023/10/31 11:33:28;;;;;;;1.83;0.60;;;15.90;99.90;;;;;;5045657;28;20190;-64
2023/10/31 11:36:03;;;;;;;3.50;0.75;;;15.90;99.90;;;;;;5024047;28;20201;-63
2023/10/31 11:38:38;;;;;;;2.40;0.75;;;16.00;99.90;;;;;;5032364;28;20189;-63
2023/10/31 11:41:04;;;;;;;1.60;0.98;;;16.10;99.90;;;;;;5025981;28;20201;-64
2023/10/31 11:43:39;;;;;;;1.17;0.73;;;16.10;99.90;;;;;;5028774;28;20258;-64
2023/10/31 11:46:05;;;;;;;1.70;0.80;;;16.10;99.90;;;;;;5032821;28;20202;-63
2023/10/31 11:48:47;;;;;;;1.45;0.70;;;16.20;99.90;;;;;;5032132;28;20174;-63
2023/10/31 11:51:15;;;;;;;2.40;0.73;;;16.30;99.90;;;;;;5030486;28;20200;-64
2023/10/31 11:53:44;;;;;;;1.95;0.82;;;16.30;99.90;;;;;;5024630;28;20193;-63
2023/10/31 11:56:11;;;;;;;1.40;0.93;;;16.40;99.90;;;;;;5038385;28;20174;-62
2023/10/31 11:58:37;;;;;;;2.10;0.80;;;16.70;99.90;;;;;;5039721;28;20197;-63
2023/10/31 12:01:04;;;;;;;1.45;0.80;;;16.80;99.90;;;;;;5030162;28;20207;-63
2023/10/31 12:03:57;;;;;;;3.05;0.80;;;17.00;99.90;;;;;;5030989;28;20198;-63
2023/10/31 12:06:22;;;;;;;1.83;0.80;;;17.10;99.90;;;;;;5024252;28;20177;-66
2023/10/31 12:08:52;;;;;;;1.98;0.93;;;17.20;99.90;;;;;;5027076;28;20182;-63
2023/10/31 12:11:20;;;;;;;1.50;0.70;;;17.40;99.90;;;;;;5028324;28;20227;-63
2023/10/31 12:14:04;;;;;;;1.92;0.60;;;17.50;99.90;;;;;;5029392;28;20177;-63
2023/10/31 12:16:34;;;;;;;2.10;0.70;;;17.70;99.90;;;;;;5037372;28;20226;-64
2023/10/31 12:19:04;;;;;;;2.58;0.68;;;17.80;99.90;;;;;;5037096;28;20200;-64
2023/10/31 12:21:37;;;;;;;1.95;0.77;;;18.00;99.90;;;;;;5024302;28;20200;-64
2023/10/31 12:24:07;;;;;;;1.60;0.82;;;18.10;99.90;;;;;;5027951;28;20263;-63
2023/10/31 12:26:39;;;;;;;2.53;0.95;;;18.20;99.90;;;;;;5027565;28;20174;-64
2023/10/31 12:29:13;;;;;;;2.25;0.77;;;18.30;99.90;;;;;;5025174;28;20205;-64
2023/10/31 12:31:51;;;;;;;1.65;0.77;;;18.40;99.90;;;;;;5028389;28;20215;-63
2023/10/31 12:34:19;;;;;;;1.10;0.65;;;18.40;99.90;;;;;;5022919;28;20181;-63
2023/10/31 12:36:49;;;;;;;1.45;1.00;;;18.50;99.90;;;;;;5028762;28;20178;-64
2023/10/31 12:39:16;;;;;;;3.58;1.00;;;18.50;99.90;;;;;;5029385;28;20201;-63
2023/10/31 12:41:45;;;;;;;3.38;0.93;;;18.60;99.90;;;;;;5032806;28;20202;-64
2023/10/31 12:44:17;;;;;;;3.03;0.77;;;18.60;99.90;;;;;;5037930;28;20211;-63
2023/10/31 12:46:45;;;;;;;2.85;0.80;;;18.60;99.90;;;;;;5037653;28;20239;-63
2023/10/31 12:49:15;;;;;;;3.72;1.00;;;18.60;99.90;;;;;;5026856;28;20173;-63